Time;durP1;ratioP1;P1;durP2;ratioP2;P2;SDS_P1;SDS_P2;PMS_P1;PMS_P2;Temp;Humidity;BMP_temperature;BMP_pressure;BME280_temperature;BME280_humidity;BME280_pressure;Samples;Min_cycle;Max_cycle;Signal;HPM_P1;HPM_P2
2021/05/28 00:01:54;;;;;;;3.73;3.30;;;12.60;99.90;;;;;;5092270;28;20452;-75
2021/05/28 00:04:21;;;;;;;4.80;3.63;;;12.70;99.90;;;;;;5091790;28;20543;-75
2021/05/28 00:06:47;;;;;;;4.83;4.10;;;12.70;99.90;;;;;;5091840;28;20444;-74
2021/05/28 00:09:13;;;;;;;6.27;5.30;;;12.60;99.90;;;;;;5091949;28;20444;-71
2021/05/28 00:11:40;;;;;;;6.40;5.00;;;12.50;99.90;;;;;;5092472;28;20449;-75
2021/05/28 00:14:07;;;;;;;4.77;4.00;;;12.40;99.90;;;;;;5091677;28;20566;-75
2021/05/28 00:16:34;;;;;;;6.90;4.93;;;12.40;99.90;;;;;;5091765;28;20977;-75
2021/05/28 00:19:01;;;;;;;5.63;4.87;;;12.60;99.90;;;;;;5092408;28;20452;-76
2021/05/28 00:21:27;;;;;;;6.63;5.13;;;12.60;99.90;;;;;;5091780;28;20471;-75
2021/05/28 00:23:53;;;;;;;7.37;5.30;;;12.60;99.90;;;;;;5092000;28;20531;-75
2021/05/28 00:26:20;;;;;;;6.00;5.40;;;12.60;99.90;;;;;;5091261;28;20445;-75
2021/05/28 00:28:49;;;;;;;6.87;6.00;;;12.70;99.90;;;;;;5093249;28;20459;-75
2021/05/28 00:31:15;;;;;;;6.10;5.50;;;12.70;99.90;;;;;;5092667;28;20448;-74
2021/05/28 00:33:43;;;;;;;6.17;5.17;;;12.70;99.90;;;;;;5093707;28;20513;-75
2021/05/28 00:36:09;;;;;;;7.33;5.60;;;12.60;99.90;;;;;;5092769;28;20524;-75
2021/05/28 00:38:36;;;;;;;6.13;5.53;;;12.70;99.90;;;;;;5093803;28;20529;-74
2021/05/28 00:41:02;;;;;;;8.50;5.87;;;12.70;99.90;;;;;;5094435;28;20447;-75
2021/05/28 00:43:29;;;;;;;6.50;5.63;;;12.80;99.90;;;;;;5094116;28;20453;-75
2021/05/28 00:45:55;;;;;;;6.47;5.77;;;12.80;99.90;;;;;;5096871;28;20525;-75
2021/05/28 00:48:22;;;;;;;7.63;6.10;;;12.70;99.90;;;;;;5108684;28;20448;-75
2021/05/28 00:50:49;;;;;;;6.37;5.50;;;12.60;99.90;;;;;;5109673;28;20452;-75
2021/05/28 00:53:16;;;;;;;5.93;5.20;;;12.50;99.90;;;;;;5110436;28;20500;-72
2021/05/28 00:55:42;;;;;;;9.30;6.30;;;12.50;99.90;;;;;;5109435;28;20480;-75
2021/05/28 00:58:09;;;;;;;5.53;4.93;;;12.60;99.90;;;;;;5107712;28;20445;-75
2021/05/28 01:00:36;;;;;;;5.83;4.77;;;12.60;99.90;;;;;;5106103;28;20563;-75
2021/05/28 01:03:03;;;;;;;6.67;4.70;;;12.60;99.90;;;;;;5103064;28;20452;-75
2021/05/28 01:05:31;;;;;;;5.33;4.30;;;12.60;99.90;;;;;;5100006;28;20452;-75
2021/05/28 01:07:59;;;;;;;7.70;4.90;;;12.60;99.90;;;;;;5097560;28;20449;-76
2021/05/28 01:10:25;;;;;;;4.33;3.93;;;12.60;99.90;;;;;;5092462;28;20448;-75
2021/05/28 01:12:52;;;;;;;4.90;3.87;;;12.60;99.90;;;;;;5091478;28;20511;-75
2021/05/28 01:15:18;;;;;;;5.80;4.17;;;12.70;99.90;;;;;;5090840;28;20455;-75
2021/05/28 01:17:45;;;;;;;4.93;4.40;;;12.70;99.90;;;;;;5090816;28;20458;-75
2021/05/28 01:20:12;;;;;;;6.67;5.20;;;12.70;99.90;;;;;;5091121;28;20476;-75
2021/05/28 01:22:39;;;;;;;6.00;4.23;;;12.80;99.90;;;;;;5091337;28;20511;-75
2021/05/28 01:25:07;;;;;;;4.50;4.10;;;12.80;99.90;;;;;;5089993;28;20448;-74
2021/05/28 01:27:34;;;;;;;4.47;3.70;;;12.80;99.90;;;;;;5090530;28;20837;-75
2021/05/28 01:30:01;;;;;;;5.30;3.77;;;12.70;99.90;;;;;;5090913;28;20506;-75
2021/05/28 01:32:27;;;;;;;4.63;3.80;;;12.80;95.60;;;;;;5090217;28;20527;-75
2021/05/28 01:34:54;;;;;;;4.20;3.80;;;12.70;53.40;;;;;;5091092;28;20488;-75
2021/05/28 01:37:20;;;;;;;5.77;3.43;;;12.70;49.40;;;;;;5090040;28;20531;-75
2021/05/28 01:39:49;;;;;;;3.40;3.10;;;12.70;20.70;;;;;;5090988;28;20452;-75
2021/05/28 01:42:16;;;;;;;4.40;3.37;;;12.70;25.60;;;;;;5090527;28;20499;-73
2021/05/28 01:44:43;;;;;;;3.33;2.50;;;12.70;1.00;;;;;;5091121;28;20471;-75
2021/05/28 01:47:10;;;;;;;5.37;2.87;;;12.70;1.00;;;;;;5089806;28;20883;-75
2021/05/28 01:49:39;;;;;;;6.37;4.83;;;12.50;33.60;;;;;;5090834;28;20440;-75
2021/05/28 01:52:06;;;;;;;4.53;3.57;;;12.40;41.40;;;;;;5089911;28;20650;-75
2021/05/28 01:54:34;;;;;;;4.10;3.27;;;12.30;53.70;;;;;;5092664;28;20496;-75
2021/05/28 01:57:01;;;;;;;3.73;3.43;;;12.40;99.90;;;;;;5094251;28;20531;-75
2021/05/28 01:59:28;;;;;;;3.70;3.10;;;12.30;69.90;;;;;;5093894;28;20472;-75
2021/05/28 02:01:55;;;;;;;3.93;3.10;;;12.20;99.90;;;;;;5094280;28;20563;-75
2021/05/28 02:04:22;;;;;;;2.83;2.50;;;12.30;19.30;;;;;;5093484;28;20535;-75
2021/05/28 02:06:49;;;;;;;3.53;3.20;;;12.20;41.80;;;;;;5093913;28;20451;-75
2021/05/28 02:09:16;;;;;;;5.17;3.80;;;12.30;18.50;;;;;;5093431;28;20456;-75
2021/05/28 02:11:42;;;;;;;3.60;3.30;;;12.40;12.70;;;;;;5094051;28;20444;-75
2021/05/28 02:14:10;;;;;;;3.40;3.03;;;12.30;99.90;;;;;;5093715;28;20513;-75
2021/05/28 02:16:37;;;;;;;3.50;2.90;;;12.30;99.90;;;;;;5093698;28;20458;-75
2021/05/28 02:19:04;;;;;;;5.10;3.57;;;12.30;99.90;;;;;;5093948;28;21002;-75
2021/05/28 02:21:31;;;;;;;5.27;3.23;;;12.20;99.90;;;;;;5093797;28;20928;-75
2021/05/28 02:23:57;;;;;;;2.90;2.63;;;12.20;99.90;;;;;;5094063;28;20866;-75
2021/05/28 02:26:24;;;;;;;8.27;3.40;;;12.20;99.90;;;;;;5092701;28;21008;-75
2021/05/28 02:28:50;;;;;;;4.47;3.13;;;12.10;99.90;;;;;;5093641;28;20436;-76
2021/05/28 02:31:19;;;;;;;3.80;3.40;;;12.20;99.90;;;;;;5093142;28;20445;-75
2021/05/28 02:33:45;;;;;;;3.43;2.90;;;12.10;99.90;;;;;;5093862;28;20614;-75
2021/05/28 02:36:12;;;;;;;4.30;3.90;;;12.10;99.90;;;;;;5092888;28;20450;-75
2021/05/28 02:38:38;;;;;;;3.57;3.27;;;12.00;99.90;;;;;;5093910;28;20445;-75
2021/05/28 02:41:05;;;;;;;5.70;3.40;;;12.00;99.90;;;;;;5093423;28;20444;-69
2021/05/28 02:43:31;;;;;;;4.40;3.60;;;12.00;99.90;;;;;;5093341;28;20469;-74
2021/05/28 02:45:57;;;;;;;4.57;3.57;;;11.90;99.90;;;;;;5092786;28;20937;-75
2021/05/28 02:48:24;;;;;;;3.23;2.90;;;11.90;99.90;;;;;;5092713;28;20451;-75
2021/05/28 02:50:51;;;;;;;3.30;3.00;;;11.80;99.90;;;;;;5093579;28;20440;-75
2021/05/28 02:53:17;;;;;;;4.73;3.30;;;11.80;99.90;;;;;;5093141;28;20484;-75
2021/05/28 02:55:44;;;;;;;4.50;3.50;;;11.70;99.90;;;;;;5093069;28;20452;-72
2021/05/28 02:58:11;;;;;;;5.60;3.93;;;11.70;99.90;;;;;;5093150;28;20528;-75
2021/05/28 03:00:38;;;;;;;3.10;2.90;;;11.70;99.90;;;;;;5093703;28;20842;-75
2021/05/28 03:03:05;;;;;;;4.03;3.73;;;11.70;99.90;;;;;;5092847;28;20841;-71
2021/05/28 03:05:32;;;;;;;4.53;3.30;;;11.60;99.90;;;;;;5092547;28;20567;-75
2021/05/28 03:07:59;;;;;;;3.70;3.17;;;11.50;99.90;;;;;;5093241;28;20460;-75
2021/05/28 03:10:25;;;;;;;3.57;2.70;;;11.60;99.90;;;;;;5092551;28;20463;-75
2021/05/28 03:12:52;;;;;;;8.10;5.87;;;11.70;99.90;;;;;;5093136;28;20451;-75
2021/05/28 03:15:18;;;;;;;4.77;3.67;;;12.00;99.90;;;;;;5092183;28;20527;-74
2021/05/28 03:17:46;;;;;;;3.90;3.07;;;12.00;99.90;;;;;;5092835;28;20444;-75
2021/05/28 03:20:22;;;;;;;4.93;3.90;;;12.10;99.90;;;;;;5092278;28;20855;-74
2021/05/28 03:22:49;;;;;;;3.00;2.80;;;12.00;99.90;;;;;;5093072;28;20507;-75
2021/05/28 03:25:17;;;;;;;4.37;3.43;;;11.90;99.90;;;;;;5092055;28;20527;-73
2021/05/28 03:27:47;;;;;;;3.03;2.83;;;11.90;99.90;;;;;;5093056;28;20535;-73
2021/05/28 03:30:15;;;;;;;2.70;2.50;;;12.00;99.90;;;;;;5092422;28;20448;-72
2021/05/28 03:32:41;;;;;;;2.43;2.23;;;11.80;99.90;;;;;;5092464;28;20452;-75
2021/05/28 03:35:08;;;;;;;5.47;2.67;;;11.70;99.90;;;;;;5092234;28;20441;-73
2021/05/28 03:37:35;;;;;;;3.47;2.67;;;11.70;99.90;;;;;;5093062;28;20501;-73
2021/05/28 03:40:03;;;;;;;3.90;2.80;;;11.60;99.90;;;;;;5092394;28;21000;-75
2021/05/28 03:42:30;;;;;;;2.90;2.60;;;11.50;99.90;;;;;;5092134;28;20449;-75
2021/05/28 03:44:56;;;;;;;3.83;3.30;;;11.50;99.90;;;;;;5092448;28;20531;-74
2021/05/28 03:47:22;;;;;;;2.50;2.30;;;11.50;99.90;;;;;;5091523;28;20501;-75
2021/05/28 03:49:49;;;;;;;3.47;3.17;;;11.40;99.90;;;;;;5092485;28;20493;-74
2021/05/28 03:52:15;;;;;;;3.53;2.80;;;11.20;99.90;;;;;;5091770;28;20880;-74
2021/05/28 03:54:42;;;;;;;2.70;2.50;;;11.40;99.90;;;;;;5092458;28;20504;-74
2021/05/28 03:57:09;;;;;;;3.27;2.70;;;11.30;99.90;;;;;;5091392;28;20448;-74
2021/05/28 03:59:36;;;;;;;3.00;2.80;;;11.20;99.90;;;;;;5092220;28;20531;-74
2021/05/28 04:02:03;;;;;;;4.03;3.13;;;11.20;99.90;;;;;;5092095;28;20445;-74
2021/05/28 04:04:31;;;;;;;4.30;2.90;;;11.40;99.90;;;;;;5091299;28;20452;-76
2021/05/28 04:06:57;;;;;;;3.20;2.90;;;11.40;99.90;;;;;;5091390;28;20457;-75
2021/05/28 04:09:24;;;;;;;4.00;3.00;;;11.30;99.90;;;;;;5091377;28;20457;-74
2021/05/28 04:11:50;;;;;;;3.20;2.60;;;11.40;99.90;;;;;;5091905;28;20453;-75
2021/05/28 04:14:17;;;;;;;4.07;2.97;;;11.30;99.90;;;;;;5091410;28;20484;-74
2021/05/28 04:16:44;;;;;;;3.50;3.20;;;11.40;99.90;;;;;;5090684;28;20448;-74
2021/05/28 04:19:10;;;;;;;2.83;2.53;;;11.40;99.90;;;;;;5091201;28;20971;-75
2021/05/28 04:21:36;;;;;;;2.53;2.33;;;11.40;99.90;;;;;;5091323;28;20462;-75
2021/05/28 04:24:04;;;;;;;3.20;2.83;;;11.20;99.90;;;;;;5091866;28;20582;-74
2021/05/28 04:26:30;;;;;;;4.47;3.30;;;11.30;99.90;;;;;;5091476;28;20438;-75
2021/05/28 04:28:57;;;;;;;3.70;3.40;;;11.30;99.90;;;;;;5091494;28;20476;-75
2021/05/28 04:31:24;;;;;;;5.67;4.07;;;11.30;99.90;;;;;;5091125;28;20876;-75
2021/05/28 04:33:51;;;;;;;5.63;4.00;;;11.40;99.90;;;;;;5091808;28;20480;-74
2021/05/28 04:36:17;;;;;;;6.43;3.60;;;11.30;99.90;;;;;;5090751;28;20460;-74
2021/05/28 04:38:43;;;;;;;4.47;3.60;;;11.30;99.90;;;;;;5091677;28;20797;-72
2021/05/28 04:41:10;;;;;;;4.17;3.37;;;11.30;99.90;;;;;;5091241;28;20449;-76
2021/05/28 04:43:37;;;;;;;5.70;3.70;;;11.30;99.90;;;;;;5091818;28;20499;-75
2021/05/28 04:46:03;;;;;;;6.73;4.60;;;11.20;99.90;;;;;;5091017;28;20445;-75
2021/05/28 04:48:31;;;;;;;4.30;3.90;;;11.30;99.90;;;;;;5091326;28;21032;-75
2021/05/28 04:50:57;;;;;;;8.50;4.50;;;11.40;99.90;;;;;;5091493;28;20447;-75
2021/05/28 04:53:23;;;;;;;5.70;4.37;;;11.50;99.90;;;;;;5090595;28;20511;-73
2021/05/28 04:55:50;;;;;;;4.43;3.87;;;11.70;99.90;;;;;;5091109;28;20451;-75
2021/05/28 04:58:16;;;;;;;4.53;3.90;;;11.90;99.90;;;;;;5090436;28;20531;-75
2021/05/28 05:00:44;;;;;;;4.53;4.10;;;12.00;99.90;;;;;;5091463;28;20455;-74
2021/05/28 05:03:10;;;;;;;4.40;3.20;;;12.00;99.90;;;;;;5090567;28;20539;-75
2021/05/28 05:05:37;;;;;;;4.87;3.57;;;12.00;99.90;;;;;;5090831;28;20452;-75
2021/05/28 05:08:04;;;;;;;7.97;4.10;;;11.80;99.90;;;;;;5091180;28;20964;-74
2021/05/28 05:10:30;;;;;;;7.80;4.90;;;11.90;99.90;;;;;;5091301;28;20532;-75
2021/05/28 05:12:57;;;;;;;4.50;4.03;;;12.10;99.90;;;;;;5091142;28;20445;-75
2021/05/28 05:15:23;;;;;;;6.50;3.90;;;12.10;99.90;;;;;;5089953;28;20539;-75
2021/05/28 05:17:50;;;;;;;4.90;3.77;;;12.20;99.90;;;;;;5090982;28;20473;-75
2021/05/28 05:20:16;;;;;;;4.53;4.13;;;12.30;99.90;;;;;;5090586;28;20845;-75
2021/05/28 05:22:43;;;;;;;5.93;4.50;;;12.30;99.90;;;;;;5091029;28;20452;-75
2021/05/28 05:25:10;;;;;;;6.60;4.50;;;12.40;47.80;;;;;;5090031;28;21025;-75
2021/05/28 05:27:37;;;;;;;6.43;4.53;;;;;;;;;;5091073;28;20808;-74
2021/05/28 05:30:04;;;;;;;4.60;4.10;;;;;;;;;;5093656;28;21005;-75
2021/05/28 05:32:31;;;;;;;5.30;4.70;;;;;;;;;;5095050;28;20440;-74
2021/05/28 05:34:58;;;;;;;6.20;5.23;;;;;;;;;;5094681;28;20483;-72
2021/05/28 05:37:25;;;;;;;10.57;4.23;;;;;;;;;;5094444;28;20683;-75
2021/05/28 05:39:52;;;;;;;7.87;4.87;;;;;;;;;;5094506;28;20529;-75
2021/05/28 05:42:19;;;;;;;7.40;5.20;;;;;;;;;;5094237;28;20551;-75
2021/05/28 05:44:46;;;;;;;7.93;5.20;;;;;;;;;;5094701;28;20444;-75
2021/05/28 05:47:13;;;;;;;6.93;4.70;;;;;;;;;;5093952;28;20444;-75
2021/05/28 05:49:39;;;;;;;7.33;4.57;;;;;;;;;;5094812;28;20523;-75
2021/05/28 05:52:06;;;;;;;5.27;4.80;;;;;;;;;;5094155;28;20468;-73
2021/05/28 05:54:33;;;;;;;9.90;5.60;;;;;;;;;;5094466;28;20517;-75
2021/05/28 05:57:01;;;;;;;5.57;4.70;;;;;;;;;;5094223;28;20531;-74
2021/05/28 05:59:29;;;;;;;6.63;5.10;;;;;;;;;;5093594;28;20480;-75
2021/05/28 06:01:55;;;;;;;7.30;4.97;;;;;;;;;;5094159;28;20971;-75
2021/05/28 06:04:22;;;;;;;6.83;5.57;;;;;;;;;;5093937;28;20527;-74
2021/05/28 06:06:49;;;;;;;6.37;5.50;;;;;;;;;;5093706;28;20924;-74
2021/05/28 06:09:15;;;;;;;12.03;5.57;;;;;;;;;;5093020;28;20480;-74
2021/05/28 06:11:42;;;;;;;7.93;5.37;;;;;;;;;;5094188;28;20456;-75
2021/05/28 06:14:10;;;;;;;7.80;5.03;;;;;;;;;;5093783;28;20508;-75
2021/05/28 06:16:36;;;;;;;5.40;4.70;;;;;;;;;;5093791;28;20483;-75
2021/05/28 06:19:03;;;;;;;6.30;5.47;;;;;;;;;;5093937;28;21008;-75
2021/05/28 06:21:31;;;;;;;6.70;5.30;;;;;;;;;;5093967;28;20444;-74
2021/05/28 06:23:58;;;;;;;5.70;4.90;;;;;;;;;;5093902;28;20458;-75
2021/05/28 06:26:24;;;;;;;7.37;4.80;;;;;;;;;;5093125;28;21060;-75
2021/05/28 06:28:51;;;;;;;7.30;5.60;;;;;;;;;;5094014;28;20456;-75
2021/05/28 06:31:19;;;;;;;10.37;5.97;;;;;;;;;;5093156;28;21009;-74
2021/05/28 06:33:45;;;;;;;6.13;5.37;;;;;;;;;;5093843;28;20565;-74
2021/05/28 06:36:12;;;;;;;6.47;5.33;;;;;;;;;;5092707;28;20483;-75
2021/05/28 06:38:39;;;;;;;7.80;6.07;;;;;;;;;;5093989;28;20523;-74
2021/05/28 06:41:05;;;;;;;5.53;5.00;;;;;;;;;;5092426;28;20505;-68
2021/05/28 06:43:32;;;;;;;6.47;5.30;;;;;;;;;;5093230;28;20535;-75
2021/05/28 06:45:58;;;;;;;9.93;4.43;;;;;;;;;;5092716;28;20544;-75
2021/05/28 06:48:26;;;;;;;7.07;4.67;;;;;;;;;;5092785;28;20452;-75
2021/05/28 06:50:53;;;;;;;7.30;4.90;;;;;;;;;;5093473;28;20543;-75
2021/05/28 06:53:19;;;;;;;7.17;4.83;;;;;;;;;;5092865;28;20543;-75
2021/05/28 06:55:46;;;;;;;5.10;4.60;;;;;;;;;;5092730;28;20944;-75
2021/05/28 06:58:13;;;;;;;7.77;4.90;;;;;;;;;;5093192;28;20450;-75
2021/05/28 07:00:40;;;;;;;6.97;4.60;;;;;;;;;;5093372;28;20544;-75
2021/05/28 07:03:06;;;;;;;8.43;4.70;;;;;;;;;;5092685;28;20881;-75
2021/05/28 07:05:34;;;;;;;8.17;5.13;;;;;;;;;;5092743;28;21002;-75
2021/05/28 07:08:01;;;;;;;7.13;4.00;;;;;;;;;;5093237;28;20867;-75
2021/05/28 07:10:28;;;;;;;6.70;5.97;;;;;;;;;;5092373;28;20437;-75
2021/05/28 07:12:54;;;;;;;6.30;4.73;;;;;;;;;;5093168;28;20448;-75
2021/05/28 07:15:21;;;;;;;7.80;4.67;;;;;;;;;;5091934;28;20845;-75
2021/05/28 07:17:47;;;;;;;5.73;5.07;;;12.60;99.90;;;;;;5093073;28;20533;-75
2021/05/28 07:20:15;;;;;;;6.33;5.70;;;14.20;1.00;;;;;;5092085;28;20480;-74
2021/05/28 07:22:42;;;;;;;10.70;5.20;;;14.20;1.00;;;;;;5092801;28;20531;-75
2021/05/28 07:25:10;;;;;;;5.00;4.50;;;14.20;99.90;;;;;;5091680;28;20531;-75
2021/05/28 07:27:36;;;;;;;6.60;5.40;;;14.40;1.00;;;;;;5092831;28;20868;-75
2021/05/28 07:30:05;;;;;;;4.70;4.20;;;14.50;99.90;;;;;;5092417;28;20448;-75
2021/05/28 07:32:31;;;;;;;6.17;4.60;;;14.60;1.00;;;;;;5092402;28;20441;-75
2021/05/28 07:34:57;;;;;;;5.73;4.10;;;14.60;1.00;;;;;;5091719;28;20571;-75
2021/05/28 07:37:24;;;;;;;5.77;4.20;;;14.80;99.90;;;;;;5091694;28;20484;-75
2021/05/28 07:39:51;;;;;;;5.03;4.10;;;14.80;78.60;;;;;;5092411;28;20891;-75
2021/05/28 07:42:18;;;;;;;8.40;5.57;;;14.90;99.90;;;;;;5091631;28;20537;-73
2021/05/28 07:44:44;;;;;;;8.23;4.80;;;14.90;99.90;;;;;;5092088;28;20968;-72
2021/05/28 07:47:11;;;;;;;10.33;5.27;;;15.00;99.90;;;;;;5091887;28;20453;-75
2021/05/28 07:49:38;;;;;;;7.00;4.63;;;15.20;99.90;;;;;;5092298;28;20467;-75
2021/05/28 07:52:05;;;;;;;5.80;4.50;;;15.20;99.90;;;;;;5091274;28;20480;-69
2021/05/28 07:54:32;;;;;;;5.80;5.17;;;15.10;99.90;;;;;;5092184;28;20499;-75
2021/05/28 07:56:59;;;;;;;12.83;4.73;;;15.20;99.90;;;;;;5091608;28;20441;-75
2021/05/28 07:59:25;;;;;;;5.10;4.47;;;15.20;99.90;;;;;;5091379;28;20455;-75
2021/05/28 08:01:52;;;;;;;5.97;4.50;;;15.30;99.90;;;;;;5092026;28;20448;-75
2021/05/28 08:04:18;;;;;;;5.17;4.40;;;15.20;99.90;;;;;;5091456;28;20543;-75
2021/05/28 08:06:45;;;;;;;6.13;4.23;;;15.40;99.90;;;;;;5091439;28;20535;-74
2021/05/28 08:09:11;;;;;;;6.40;4.73;;;15.40;74.60;;;;;;5091335;28;20523;-75
2021/05/28 08:11:37;;;;;;;7.03;5.07;;;15.30;1.00;;;;;;5091871;28;20497;-75
2021/05/28 08:14:05;;;;;;;6.43;4.40;;;15.00;1.00;;;;;;5091871;28;20568;-75
2021/05/28 08:16:31;;;;;;;5.23;4.03;;;14.90;1.00;;;;;;5091256;28;20487;-75
2021/05/28 08:19:00;;;;;;;4.73;3.90;;;15.10;1.00;;;;;;5091585;28;20449;-74
2021/05/28 08:21:27;;;;;;;4.63;3.67;;;15.10;1.00;;;;;;5091121;28;20472;-75
2021/05/28 08:23:53;;;;;;;3.77;3.47;;;15.30;1.00;;;;;;5091601;28;20498;-74
2021/05/28 08:26:19;;;;;;;4.83;3.60;;;15.40;1.00;;;;;;5090521;28;20455;-75
2021/05/28 08:28:46;;;;;;;6.63;3.70;;;15.50;1.00;;;;;;5091467;28;20479;-75
2021/05/28 08:31:13;;;;;;;3.70;3.27;;;15.70;99.90;;;;;;5091137;28;20448;-75
2021/05/28 08:33:39;;;;;;;3.00;2.70;;;15.40;99.90;;;;;;5091448;28;21015;-75
2021/05/28 08:36:07;;;;;;;9.73;3.37;;;15.50;99.90;;;;;;5090590;28;20448;-75
2021/05/28 08:38:33;;;;;;;4.17;3.80;;;15.60;99.90;;;;;;5091676;28;20444;-75
2021/05/28 08:41:00;;;;;;;6.23;4.00;;;15.50;99.90;;;;;;5091586;28;20862;-75
2021/05/28 08:43:26;;;;;;;5.90;3.70;;;15.30;99.90;;;;;;5090898;28;20829;-75
2021/05/28 08:45:53;;;;;;;5.30;4.27;;;15.60;99.90;;;;;;5090938;28;20452;-75
2021/05/28 08:48:21;;;;;;;6.50;4.00;;;15.90;99.90;;;;;;5090543;28;20440;-75
2021/05/28 08:50:50;;;;;;;4.20;3.90;;;16.00;99.90;;;;;;5091200;28;20527;-75
2021/05/28 08:53:17;;;;;;;6.37;4.27;;;16.20;99.90;;;;;;5090270;28;20468;-75
2021/05/28 08:55:45;;;;;;;5.27;4.50;;;16.00;99.90;;;;;;5090683;28;20537;-73
2021/05/28 08:58:14;;;;;;;7.17;4.50;;;15.90;99.90;;;;;;5090898;28;20535;-75
2021/05/28 09:00:42;;;;;;;4.57;3.57;;;16.00;61.30;;;;;;5091405;28;20447;-75
2021/05/28 09:03:19;;;;;;;3.70;3.40;;;16.40;1.00;;;;;;5092305;28;20521;-76
2021/05/28 09:05:47;;;;;;;9.40;3.80;;;16.20;1.00;;;;;;5095004;28;20624;-75
2021/05/28 09:08:14;;;;;;;6.27;3.53;;;16.10;1.00;;;;;;5094591;28;20817;-73
2021/05/28 09:10:42;;;;;;;5.73;3.97;;;16.10;1.00;;;;;;5095520;28;20527;-75
2021/05/28 09:13:12;;;;;;;5.63;3.63;;;15.90;1.00;;;;;;5095205;28;20501;-75
2021/05/28 09:15:39;;;;;;;4.13;3.17;;;15.90;1.00;;;;;;5094841;28;20529;-75
2021/05/28 09:18:06;;;;;;;5.67;4.07;;;15.90;1.00;;;;;;5094549;28;20554;-74
2021/05/28 09:20:32;;;;;;;5.70;4.20;;;15.90;1.00;;;;;;5095150;28;20454;-75
2021/05/28 09:23:24;;;;;;;5.67;4.20;;;15.70;1.00;;;;;;5095274;28;20491;-76
2021/05/28 09:25:55;;;;;;;4.27;3.87;;;15.80;1.00;;;;;;5084202;28;20460;-75
2021/05/28 09:28:22;;;;;;;6.63;3.80;;;15.40;1.00;;;;;;5094581;28;20791;-75
2021/05/28 09:30:56;;;;;;;4.97;3.50;;;15.50;1.00;;;;;;5095095;28;20476;-75
2021/05/28 09:33:23;;;;;;;5.67;3.60;;;15.50;1.00;;;;;;5094215;28;20801;-76
2021/05/28 09:35:51;;;;;;;4.90;3.03;;;15.80;1.00;;;;;;5094423;28;20452;-76
2021/05/28 09:38:21;;;;;;;4.33;3.53;;;15.80;1.00;;;;;;5094348;28;20547;-75
2021/05/28 09:40:48;;;;;;;4.57;3.00;;;16.00;1.00;;;;;;5094649;28;20449;-75
2021/05/28 09:43:22;;;;;;;4.47;4.03;;;16.40;1.00;;;;;;5094212;28;20497;-75
2021/05/28 09:45:49;;;;;;;6.30;3.77;;;16.50;1.00;;;;;;5093951;28;20472;-75
2021/05/28 09:48:26;;;;;;;4.80;4.00;;;16.30;1.00;;;;;;5094303;28;20448;-75
2021/05/28 09:50:55;;;;;;;4.00;3.57;;;16.50;1.00;;;;;;5094723;28;20442;-75
2021/05/28 09:53:33;;;;;;;5.40;3.47;;;16.50;1.00;;;;;;5093920;28;20551;-75
2021/05/28 09:56:16;;;;;;;7.83;3.90;;;16.60;1.00;;;;;;5093808;28;20493;-75
2021/05/28 09:59:01;;;;;;;5.27;3.40;;;16.80;1.00;;;;;;5094289;28;20574;-75
2021/05/28 10:01:29;;;;;;;5.53;3.53;;;17.00;1.00;;;;;;5093926;28;20447;-75
2021/05/28 10:04:06;;;;;;;7.07;3.60;;;16.90;1.00;;;;;;5094055;28;20975;-75
2021/05/28 10:06:34;;;;;;;3.73;3.33;;;16.70;1.00;;;;;;5093931;28;20852;-75
2021/05/28 10:09:04;;;;;;;6.47;3.80;;;16.90;1.00;;;;;;5093979;28;20542;-75
2021/05/28 10:11:32;;;;;;;3.30;3.00;;;16.90;1.00;;;;;;5094243;28;20444;-75
2021/05/28 10:13:59;;;;;;;5.10;4.60;;;17.10;1.00;;;;;;5093625;28;20625;-76
2021/05/28 10:16:25;;;;;;;4.10;3.60;;;17.10;1.00;;;;;;5092635;28;20479;-75
2021/05/28 10:18:53;;;;;;;5.00;4.50;;;17.10;1.00;;;;;;5094025;28;20808;-76
2021/05/28 10:21:20;;;;;;;4.63;4.03;;;16.80;1.00;;;;;;5093256;28;20526;-76
2021/05/28 10:23:47;;;;;;;5.00;3.77;;;17.30;1.00;;;;;;5094168;28;20513;-75
2021/05/28 10:26:16;;;;;;;4.47;3.50;;;17.10;99.90;;;;;;5093093;28;20858;-73
2021/05/28 10:28:47;;;;;;;4.90;4.40;;;17.10;99.90;;;;;;5094030;28;20448;-75
2021/05/28 10:31:14;;;;;;;5.87;3.43;;;17.30;99.90;;;;;;5093368;28;20502;-73
2021/05/28 10:33:48;;;;;;;5.13;4.13;;;17.20;99.90;;;;;;5093937;28;20864;-75
2021/05/28 10:36:34;;;;;;;6.30;3.93;;;17.20;99.90;;;;;;5092773;28;20441;-74
2021/05/28 10:39:07;;;;;;;5.00;3.50;;;17.10;99.90;;;;;;5093831;28;20448;-75
2021/05/28 10:41:39;;;;;;;5.60;3.87;;;17.00;99.90;;;;;;5093785;28;20527;-75
2021/05/28 10:44:08;;;;;;;3.47;3.17;;;17.10;99.90;;;;;;5093156;28;20589;-70
2021/05/28 10:46:36;;;;;;;3.33;3.03;;;17.00;99.90;;;;;;5093174;28;20436;-74
2021/05/28 10:49:08;;;;;;;3.10;2.77;;;17.10;99.90;;;;;;5093292;28;20472;-75
2021/05/28 10:52:01;;;;;;;3.87;2.80;;;17.10;99.90;;;;;;5093135;28;20493;-75
2021/05/28 10:54:31;;;;;;;5.20;3.43;;;17.00;99.90;;;;;;5092365;28;20488;-75
2021/05/28 10:57:16;;;;;;;5.10;2.83;;;17.10;99.90;;;;;;5093416;28;20437;-75
2021/05/28 10:59:47;;;;;;;3.50;3.10;;;17.30;99.90;;;;;;5093361;28;20531;-75
2021/05/28 11:02:14;;;;;;;3.47;2.63;;;17.40;99.90;;;;;;5092635;28;20495;-73
2021/05/28 11:04:57;;;;;;;2.97;2.67;;;17.40;99.90;;;;;;5093046;28;20527;-75
2021/05/28 11:07:24;;;;;;;4.77;3.00;;;;;;;;;;5092270;28;20444;-75
2021/05/28 11:09:51;;;;;;;4.00;3.30;;;;;;;;;;5092868;28;21027;-75
2021/05/28 11:12:18;;;;;;;2.87;2.50;;;;;;;;;;5092397;28;20477;-75
2021/05/28 11:14:59;;;;;;;3.80;2.57;;;;;;;;;;5092602;28;21257;-75
2021/05/28 11:17:25;;;;;;;4.13;2.93;;;;;;;;;;5092540;28;20447;-75
2021/05/28 11:19:57;;;;;;;5.30;3.57;;;;;;;;;;5092888;28;20532;-75
2021/05/28 11:22:35;;;;;;;5.87;3.10;;;;;;;;;;5092287;28;20453;-75
2021/05/28 11:25:04;;;;;;;3.17;2.87;;;;;;;;;;5092583;28;20868;-75
2021/05/28 11:27:44;;;;;;;4.97;3.63;;;;;;;;;;5092609;28;20523;-75
2021/05/28 11:30:22;;;;;;;3.97;2.50;;;;;;;;;;5092040;28;20959;-75
2021/05/28 11:32:49;;;;;;;2.50;2.30;;;;;;;;;;5092634;28;20527;-75
2021/05/28 11:35:17;;;;;;;3.03;2.83;;;;;;;;;;5091555;28;20488;-75
2021/05/28 11:37:45;;;;;;;2.57;2.40;;;;;;;;;;5092617;28;20459;-73
2021/05/28 11:40:13;;;;;;;2.67;1.90;;;;;;;;;;5092129;28;20476;-74
2021/05/28 11:42:40;;;;;;;4.07;3.10;;;;;;;;;;5092691;28;20630;-75
2021/05/28 11:45:08;;;;;;;3.10;2.57;;;;;;;;;;5095137;28;20448;-75
2021/05/28 11:47:36;;;;;;;3.70;2.80;;;;;;;;;;5092434;28;20532;-75
2021/05/28 11:50:04;;;;;;;3.43;2.73;;;;;;;;;;5091571;28;20535;-75
2021/05/28 11:52:31;;;;;;;6.00;2.27;;;;;;;;;;5091889;28;20547;-76
2021/05/28 11:55:07;;;;;;;3.43;2.33;;;;;;;;;;5091860;28;20492;-75
2021/05/28 11:57:34;;;;;;;7.20;2.97;;;;;;;;;;5092172;28;20878;-76
2021/05/28 12:00:01;;;;;;;3.37;2.90;;;;;;;;;;5092153;28;20502;-75
2021/05/28 12:02:48;;;;;;;4.20;2.43;;;;;;;;;;5091039;28;20527;-75
2021/05/28 12:05:16;;;;;;;3.60;2.20;;;;;;;;;;5090369;28;20448;-74
2021/05/28 12:07:42;;;;;;;3.30;2.00;;;;;;;;;;5091873;28;20536;-74
2021/05/28 12:10:11;;;;;;;3.53;2.57;;;;;;;;;;5091409;28;20483;-75
2021/05/28 12:12:49;;;;;;;2.03;1.73;;;;;;;;;;5091865;28;20595;-75
2021/05/28 12:15:16;;;;;;;2.90;2.00;;;;;;;;;;5090844;28;20507;-75
2021/05/28 12:17:43;;;;;;;3.10;2.13;;;;;;;;;;5092115;28;20546;-74
2021/05/28 12:20:14;;;;;;;2.83;1.87;;;;;;;;;;5091407;28;20548;-73
2021/05/28 12:22:56;;;;;;;2.70;2.10;;;;;;;;;;5091888;28;20462;-73
2021/05/28 12:25:23;;;;;;;2.90;2.50;;;;;;;;;;5090582;28;20452;-73
2021/05/28 12:27:49;;;;;;;3.17;2.50;;;;;;;;;;5091486;28;20472;-73
2021/05/28 12:30:23;;;;;;;5.80;2.83;;;17.80;99.90;;;;;;5090757;28;20448;-74
2021/05/28 12:32:49;;;;;;;2.20;2.00;;;18.60;99.90;;;;;;5091299;28;20527;-74
2021/05/28 12:35:17;;;;;;;2.30;1.90;;;;;;;;;;5090422;28;20484;-74
2021/05/28 12:37:58;;;;;;;1.90;1.80;;;;;;;;;;5091128;28;20479;-72
2021/05/28 12:40:25;;;;;;;1.50;1.30;;;;;;;;;;5090691;28;20736;-75
2021/05/28 12:42:55;;;;;;;2.60;1.90;;;;;;;;;;5091536;28;20440;-74
2021/05/28 12:45:22;;;;;;;2.00;1.67;;;;;;;;;;5090548;28;20453;-75
2021/05/28 12:47:48;;;;;;;3.97;2.10;;;;;;;;;;5091441;28;20536;-75
2021/05/28 12:50:26;;;;;;;5.00;1.93;;;;;;;;;;5090898;28;20532;-75
2021/05/28 12:52:53;;;;;;;2.87;2.00;;;;;;;;;;5091089;28;20543;-75
2021/05/28 12:55:27;;;;;;;3.70;1.80;;;;;;;;;;5090598;28;21005;-75
2021/05/28 12:57:54;;;;;;;2.07;1.87;;;;;;;;;;5091584;28;20867;-74
2021/05/28 13:00:30;;;;;;;3.93;2.40;;;;;;;;;;5090792;28;20445;-73
2021/05/28 13:02:57;;;;;;;2.43;2.20;;;;;;;;;;5091387;28;20444;-74
2021/05/28 13:05:32;;;;;;;2.53;1.97;;;;;;;;;;5090384;28;20460;-73
2021/05/28 13:07:58;;;;;;;2.13;1.93;;;;;;;;;;5091339;28;20451;-73
2021/05/28 13:10:26;;;;;;;3.30;2.20;;;18.90;99.90;;;;;;5090618;28;20654;-73
2021/05/28 13:13:14;;;;;;;3.73;2.03;;;19.80;99.90;;;;;;5091243;28;20453;-73
2021/05/28 13:15:42;;;;;;;2.50;2.30;;;19.80;99.90;;;;;;5090525;28;20590;-74
2021/05/28 13:18:08;;;;;;;3.43;2.33;;;19.80;98.00;;;;;;5090499;28;20535;-73
2021/05/28 13:20:36;;;;;;;1.40;1.30;;;19.80;93.70;;;;;;5090807;28;20975;-74
2021/05/28 13:23:17;;;;;;;4.90;1.93;;;19.80;91.80;;;;;;5091106;28;20504;-74